createdAt,value
2022-09-05T00:01:48.677Z,16.77
2022-09-05T00:04:25.449Z,16.91
2022-09-05T00:06:59.629Z,16.96
2022-09-05T00:09:51.793Z,17.05
2022-09-05T00:12:19.522Z,17.07
2022-09-05T00:15:16.246Z,17.05
2022-09-05T00:18:47.037Z,17.15
2022-09-05T00:24:37.605Z,17.16
2022-09-05T00:24:42.297Z,17.17
2022-09-05T00:26:47.213Z,17.17
2022-09-05T00:30:34.986Z,17.13
2022-09-05T00:32:18.604Z,17.24
2022-09-05T00:34:59.173Z,17.23
2022-09-05T00:37:32.164Z,17.16
2022-09-05T00:40:18.468Z,17.15
2022-09-05T00:42:49.855Z,17.14
2022-09-05T00:45:20.704Z,17.07
2022-09-05T00:47:50.575Z,16.97
2022-09-05T00:50:22.225Z,16.97
2022-09-05T00:53:07.384Z,16.92
2022-09-05T00:55:40.662Z,16.83
2022-09-05T00:58:24.133Z,16.82
2022-09-05T01:00:53.645Z,16.81
2022-09-05T01:03:33.563Z,16.80
2022-09-05T01:06:17.283Z,16.76
2022-09-05T01:08:55.825Z,16.65
2022-09-05T01:11:44.977Z,16.57
2022-09-05T01:14:40.853Z,16.60
2022-09-05T01:17:21.780Z,16.49
2022-09-05T01:20:19.710Z,16.45
2022-09-05T01:23:10.002Z,16.47
2022-09-05T01:25:54.825Z,16.50
2022-09-05T01:29:16.374Z,16.43
2022-09-05T01:31:19.921Z,16.56
2022-09-05T01:33:54.463Z,16.60
2022-09-05T01:36:31.553Z,16.37
2022-09-05T01:40:11.851Z,16.44
2022-09-05T01:41:55.644Z,16.44
2022-09-05T01:44:37.036Z,16.25
2022-09-05T01:47:25.564Z,16.19
2022-09-05T01:50:02.544Z,16.25
2022-09-05T01:52:47.732Z,16.21
2022-09-05T01:55:33.349Z,16.21
2022-09-05T01:58:14.807Z,16.15
2022-09-05T02:00:51.030Z,16.13
2022-09-05T02:03:22.497Z,16.08
2022-09-05T02:06:16.795Z,16.10
2022-09-05T02:08:55.723Z,16.11
2022-09-05T02:11:39.897Z,16.01
2022-09-05T02:14:12.170Z,16.00
2022-09-05T02:16:54.056Z,16.01
2022-09-05T02:19:25.448Z,15.99
2022-09-05T02:21:59.659Z,15.92
2022-09-05T02:24:29.492Z,15.90
2022-09-05T02:27:12.543Z,15.91
2022-09-05T02:30:08.379Z,15.92
2022-09-05T02:32:48.330Z,15.93
2022-09-05T02:35:21.108Z,15.90
2022-09-05T02:40:31.219Z,15.95
2022-09-05T02:45:18.520Z,15.88
2022-09-05T02:45:21.359Z,15.86
2022-09-05T02:46:31.177Z,15.85
2022-09-05T02:49:07.786Z,15.72
2022-09-05T02:57:27.839Z,15.75
2022-09-05T02:57:34.886Z,15.58
2022-09-05T02:58:06.605Z,15.69
2022-09-05T03:00:32.678Z,15.67
2022-09-05T03:03:17.254Z,15.60
2022-09-05T03:05:48.267Z,15.60
2022-09-05T03:08:31.464Z,15.61
2022-09-05T03:11:28.674Z,15.65
2022-09-05T03:14:34.665Z,15.32
2022-09-05T03:17:16.338Z,15.38
2022-09-05T03:20:26.061Z,15.49
2022-09-05T03:23:34.813Z,15.46
2022-09-05T03:26:28.245Z,15.50
2022-09-05T03:29:12.343Z,15.52
2022-09-05T03:32:09.158Z,15.47
2022-09-05T03:35:11.822Z,15.44
2022-09-05T03:38:06.105Z,15.37
2022-09-05T03:41:00.144Z,15.35
2022-09-05T03:43:37.841Z,15.37
2022-09-05T03:46:13.303Z,15.15
2022-09-05T03:50:57.705Z,15.29
2022-09-05T03:57:16.932Z,15.31
2022-09-05T03:57:18.318Z,15.37
2022-09-05T03:58:22.667Z,15.36
2022-09-05T04:01:52.529Z,15.34
2022-09-05T04:08:18.542Z,15.36
2022-09-05T04:08:28.210Z,15.29
2022-09-05T04:09:50.447Z,15.29
2022-09-05T04:12:20.418Z,15.23
2022-09-05T04:14:51.843Z,15.16
2022-09-05T04:17:25.679Z,15.15
2022-09-05T04:19:56.192Z,15.12
2022-09-05T04:22:29.490Z,15.11
2022-09-05T04:25:00.569Z,14.96
2022-09-05T04:27:35.883Z,14.74
2022-09-05T04:30:37.688Z,14.79
2022-09-05T04:33:09.905Z,14.88
2022-09-05T04:35:41.336Z,14.87
2022-09-05T04:38:14.311Z,14.97
2022-09-05T04:40:44.964Z,15.06
2022-09-05T04:43:20.579Z,15.13
2022-09-05T04:45:54.352Z,15.14
2022-09-05T04:48:26.037Z,15.20
2022-09-05T04:51:26.804Z,15.29
2022-09-05T04:54:12.786Z,15.31
2022-09-05T04:56:45.499Z,15.19
2022-09-05T05:01:54.482Z,15.39
2022-09-05T05:06:09.585Z,15.41
2022-09-05T05:06:16.670Z,15.51
2022-09-05T05:07:55.216Z,15.60
2022-09-05T05:11:48.464Z,15.71
2022-09-05T05:17:59.641Z,15.82
2022-09-05T05:18:09.960Z,15.94
2022-09-05T05:19:20.428Z,16.17
2022-09-05T05:21:50.844Z,16.36
2022-09-05T05:24:21.709Z,16.52
2022-09-05T05:26:56.985Z,16.57
2022-09-05T05:29:29.105Z,16.68
2022-09-05T05:31:59.084Z,16.96
2022-09-05T05:34:31.088Z,17.21
2022-09-05T05:37:01.251Z,17.42
2022-09-05T05:39:30.849Z,17.52
2022-09-05T05:41:59.293Z,17.75
2022-09-05T05:44:49.682Z,17.93
2022-09-05T05:47:31.433Z,17.95
2022-09-05T05:50:06.773Z,18.18
2022-09-05T05:53:03.255Z,18.37
2022-09-05T05:55:51.936Z,18.40
2022-09-05T05:58:50.820Z,18.48
2022-09-05T06:01:55.800Z,18.34
2022-09-05T06:05:06.904Z,18.46
2022-09-05T06:08:46.334Z,18.51
2022-09-05T06:14:49.079Z,18.57
2022-09-05T06:14:58.706Z,18.57
2022-09-05T06:17:36.677Z,18.63
2022-09-05T06:22:06.513Z,18.69
2022-09-05T06:23:51.734Z,18.98
2022-09-05T06:26:44.621Z,19.29
2022-09-05T06:29:21.243Z,19.75
2022-09-05T06:32:02.605Z,20.30
2022-09-05T06:35:00.101Z,20.91
2022-09-05T06:37:38.147Z,21.39
2022-09-05T06:40:16.941Z,21.78
2022-09-05T06:43:00.915Z,22.09
2022-09-05T06:45:39.153Z,22.61
2022-09-05T06:48:14.472Z,23.13
2022-09-05T06:51:18.079Z,23.36
2022-09-05T06:53:55.319Z,23.80
2022-09-05T06:56:33.727Z,24.14
2022-09-05T07:00:01.361Z,24.62
2022-09-05T07:02:59.250Z,24.91
2022-09-05T07:05:44.586Z,25.65
2022-09-05T07:08:36.002Z,25.96
2022-09-05T07:11:11.911Z,26.42
2022-09-05T07:13:56.964Z,27.18
2022-09-05T07:16:37.759Z,27.18
2022-09-05T07:19:18.364Z,27.42
2022-09-05T07:21:53.156Z,27.92
2022-09-05T07:24:47.576Z,27.98
2022-09-05T07:27:25.415Z,27.70
2022-09-05T07:30:01.778Z,27.91
2022-09-05T07:32:33.038Z,28.06
2022-09-05T07:35:02.765Z,27.85
2022-09-05T07:37:36.794Z,27.71
2022-09-05T07:40:27.310Z,27.56
2022-09-05T07:43:08.798Z,27.69
2022-09-05T07:45:50.832Z,27.76
2022-09-05T07:48:34.396Z,27.76
2022-09-05T07:54:07.353Z,28.08
2022-09-05T07:56:59.130Z,29.19
2022-09-05T07:57:00.663Z,28.87
2022-09-05T07:59:34.586Z,29.38
2022-09-05T08:02:04.398Z,29.65
2022-09-05T08:04:33.357Z,30.04
2022-09-05T08:07:47.879Z,29.92
2022-09-05T08:10:05.845Z,29.64
2022-09-05T08:12:44.985Z,29.95
2022-09-05T08:15:27.297Z,29.86
2022-09-05T08:18:19.564Z,29.64
2022-09-05T08:20:49.405Z,29.43
2022-09-05T08:23:33.299Z,29.61
2022-09-05T08:26:05.657Z,29.69
2022-09-05T08:28:40.413Z,29.45
2022-09-05T08:31:11.194Z,29.40
2022-09-05T08:33:40.913Z,29.26
2022-09-05T08:36:11.358Z,29.49
2022-09-05T08:38:41.199Z,29.61
2022-09-05T08:41:16.305Z,29.66
2022-09-05T08:46:36.321Z,29.79
2022-09-05T08:46:49.743Z,29.58
2022-09-05T08:49:38.753Z,29.49
2022-09-05T08:52:12.226Z,29.58
2022-09-05T08:54:49.641Z,29.67
2022-09-05T08:57:21.309Z,30.02
2022-09-05T09:00:20.612Z,30.12
2022-09-05T09:03:01.115Z,30.06
2022-09-05T09:06:12.843Z,30.08
2022-09-05T09:08:49.090Z,29.96
2022-09-05T09:11:27.281Z,30.27
2022-09-05T09:13:56.009Z,30.18
2022-09-05T09:16:30.853Z,29.99
2022-09-05T09:19:09.045Z,30.16
2022-09-05T09:21:41.922Z,30.16
2022-09-05T09:24:22.082Z,30.29
2022-09-05T09:26:55.930Z,30.15
2022-09-05T09:29:25.168Z,29.80
2022-09-05T09:32:00.679Z,29.54
2022-09-05T09:34:49.282Z,29.12
2022-09-05T09:37:59.412Z,28.98
2022-09-05T09:41:02.821Z,28.97
2022-09-05T09:43:52.569Z,29.35
2022-09-05T09:46:27.787Z,29.49
2022-09-05T09:49:21.586Z,29.47
2022-09-05T09:52:19.527Z,29.68
2022-09-05T09:55:38.979Z,29.83
2022-09-05T09:58:22.674Z,30.15
2022-09-05T10:00:54.657Z,30.41
2022-09-05T10:10:35.612Z,30.62
2022-09-05T10:10:40.340Z,30.39
2022-09-05T10:10:48.194Z,30.60
2022-09-05T10:13:09.208Z,31.43
2022-09-05T10:15:47.491Z,31.15
2022-09-05T10:18:31.904Z,30.35
2022-09-05T10:21:16.366Z,29.51
2022-09-05T10:24:00.497Z,29.09
2022-09-05T10:27:03.044Z,29.08
2022-09-05T10:29:52.898Z,28.93
2022-09-05T10:35:08.728Z,28.83
2022-09-05T10:35:25.737Z,28.50
2022-09-05T10:37:58.649Z,28.63
2022-09-05T10:40:28.081Z,28.59
2022-09-05T10:43:01.381Z,28.64
2022-09-05T10:45:38.543Z,29.43
2022-09-05T10:48:13.957Z,29.55
2022-09-05T10:50:44.315Z,29.33
2022-09-05T10:53:39.328Z,29.47
2022-09-05T10:56:13.355Z,29.44
2022-09-05T11:01:59.348Z,29.33
2022-09-05T11:02:22.382Z,29.98
2022-09-05T11:04:46.720Z,29.92
2022-09-05T11:07:29.224Z,29.96
2022-09-05T11:10:04.153Z,29.92
2022-09-05T11:12:40.473Z,30.10
2022-09-05T11:15:12.005Z,30.30
2022-09-05T11:17:42.120Z,29.74
2022-09-05T11:20:35.316Z,29.29
2022-09-05T11:23:05.043Z,28.60
2022-09-05T11:25:40.541Z,28.59
2022-09-05T11:28:14.843Z,28.60
2022-09-05T11:30:44.655Z,28.70
2022-09-05T11:39:50.250Z,28.93
2022-09-05T11:39:53.549Z,29.61
2022-09-05T11:40:30.158Z,30.17
2022-09-05T11:42:48.893Z,30.39
2022-09-05T11:45:49.795Z,30.42
2022-09-05T11:48:29.765Z,29.68
2022-09-05T11:51:34.406Z,29.62
2022-09-05T11:54:33.213Z,29.45
2022-09-05T11:57:33.073Z,29.91
2022-09-05T12:00:33.644Z,31.19
2022-09-05T12:03:05.845Z,31.52
2022-09-05T12:05:59.369Z,30.80
2022-09-05T12:08:36.248Z,30.04
2022-09-05T12:11:11.445Z,30.35
2022-09-05T12:13:45.405Z,30.24
2022-09-05T12:16:26.750Z,30.55
2022-09-05T12:19:19.232Z,31.26
2022-09-05T12:22:08.543Z,31.74
2022-09-05T12:25:23.761Z,32.41
2022-09-05T12:27:47.319Z,32.03
2022-09-05T12:30:30.097Z,31.76
2022-09-05T12:38:54.464Z,32.47
2022-09-05T12:41:14.862Z,32.80
2022-09-05T12:42:10.252Z,31.87
2022-09-05T12:42:24.100Z,32.94
2022-09-05T12:45:09.065Z,32.23
2022-09-05T12:47:54.784Z,32.18
2022-09-05T12:50:32.609Z,31.43
2022-09-05T12:53:06.717Z,31.41
2022-09-05T12:55:37.841Z,31.90
2022-09-05T13:02:57.471Z,32.48
2022-09-05T13:03:06.703Z,33.18
2022-09-05T13:04:20.719Z,33.56
2022-09-05T13:06:56.224Z,34.26
2022-09-05T13:09:29.417Z,34.58
2022-09-05T13:15:01.158Z,34.42
2022-09-05T13:15:21.897Z,34.96
2022-09-05T13:17:55.057Z,35.02
2022-09-05T13:20:34.783Z,35.17
2022-09-05T13:23:07.721Z,35.85
2022-09-05T13:25:36.986Z,35.49
2022-09-05T13:28:07.086Z,35.58
2022-09-05T13:33:41.540Z,35.86
2022-09-05T13:38:06.457Z,35.43
2022-09-05T13:38:07.593Z,36.03
2022-09-05T13:39:13.178Z,34.59
2022-09-05T13:41:44.554Z,35.35
2022-09-05T13:44:25.659Z,35.63
2022-09-05T13:47:00.803Z,35.69
2022-09-05T13:49:33.028Z,36.35
2022-09-05T13:52:13.461Z,36.82
2022-09-05T13:54:46.471Z,37.42
2022-09-05T13:57:36.950Z,37.06
2022-09-05T14:00:53.267Z,37.68
2022-09-05T14:03:55.469Z,36.67
2022-09-05T14:06:51.298Z,37.15
2022-09-05T14:09:39.437Z,37.45
2022-09-05T14:12:12.534Z,36.56
2022-09-05T14:17:54.197Z,35.07
2022-09-05T14:20:43.937Z,35.76
2022-09-05T14:23:17.681Z,36.62
2022-09-05T14:25:49.929Z,36.99
2022-09-05T14:28:24.615Z,36.91
2022-09-05T14:35:51.553Z,36.57
2022-09-05T14:37:55.739Z,33.73
2022-09-05T14:38:00.659Z,35.58
2022-09-05T14:39:57.487Z,33.32
2022-09-05T14:42:59.853Z,34.29
2022-09-05T14:45:40.151Z,34.71
2022-09-05T14:48:29.006Z,34.50
2022-09-05T14:51:25.249Z,33.93
2022-09-05T14:54:01.540Z,33.74
2022-09-05T14:58:03.381Z,33.13
2022-09-05T15:02:49.656Z,32.08
2022-09-05T15:02:52.076Z,32.62
2022-09-05T15:05:18.740Z,31.44
2022-09-05T15:07:47.300Z,31.25
2022-09-05T15:12:14.943Z,30.98
2022-09-05T15:13:25.979Z,31.32
2022-09-05T15:16:02.901Z,31.82
2022-09-05T15:18:32.181Z,31.83
2022-09-05T15:21:33.347Z,32.41
2022-09-05T15:24:04.647Z,33.10
2022-09-05T15:26:53.150Z,33.88
2022-09-05T15:29:24.573Z,34.46
2022-09-05T15:31:59.463Z,35.43
2022-09-05T15:34:38.987Z,36.08
2022-09-05T15:37:23.326Z,36.19
2022-09-05T15:40:01.819Z,35.88
2022-09-05T15:42:33.044Z,36.15
2022-09-05T15:45:10.507Z,36.34
2022-09-05T15:47:39.950Z,36.22
2022-09-05T15:50:21.370Z,36.04
2022-09-05T15:52:55.223Z,35.35
2022-09-05T15:55:25.910Z,35.15
2022-09-05T15:57:56.603Z,34.28
2022-09-05T16:00:42.021Z,33.49
2022-09-05T16:05:43.423Z,32.94
2022-09-05T16:10:27.814Z,32.65
2022-09-05T16:10:58.344Z,31.99
2022-09-05T16:12:14.260Z,31.88
2022-09-05T16:14:40.009Z,31.47
2022-09-05T16:23:14.958Z,31.30
2022-09-05T16:23:33.474Z,31.25
2022-09-05T16:23:39.366Z,30.65
2022-09-05T16:26:03.617Z,30.45
2022-09-05T16:28:33.276Z,30.35
2022-09-05T16:31:05.245Z,29.94
2022-09-05T16:33:34.563Z,29.84
2022-09-05T16:36:04.878Z,29.74
2022-09-05T16:38:49.043Z,29.66
2022-09-05T16:41:24.160Z,29.35
2022-09-05T16:43:55.360Z,29.41
2022-09-05T16:46:30.533Z,29.32
2022-09-05T16:49:02.053Z,29.34
2022-09-05T16:51:39.817Z,29.41
2022-09-05T16:54:14.522Z,29.34
2022-09-05T16:56:44.644Z,29.31
2022-09-05T16:59:15.342Z,29.29
2022-09-05T17:02:07.194Z,29.26
2022-09-05T17:05:05.805Z,29.15
2022-09-05T17:07:43.346Z,28.65
2022-09-05T17:10:13.030Z,28.30
2022-09-05T17:12:41.625Z,28.14
2022-09-05T17:15:12.162Z,27.90
2022-09-05T17:18:19.175Z,27.65
2022-09-05T17:20:40.115Z,27.27
2022-09-05T17:29:08.692Z,27.18
2022-09-05T17:29:25.567Z,26.72
2022-09-05T17:29:26.099Z,27.03
2022-09-05T17:31:57.809Z,26.80
2022-09-05T17:34:44.793Z,26.68
2022-09-05T17:37:22.582Z,26.63
2022-09-05T17:39:56.496Z,26.58
2022-09-05T17:42:39.139Z,26.62
2022-09-05T17:45:12.934Z,26.42
2022-09-05T17:47:53.885Z,26.42
2022-09-05T17:50:44.459Z,26.43
2022-09-05T17:53:25.631Z,26.32
2022-09-05T17:56:14.574Z,26.22
2022-09-05T17:59:07.061Z,26.02
2022-09-05T18:01:35.733Z,26.03
2022-09-05T18:04:16.084Z,25.94
2022-09-05T18:06:54.055Z,25.89
2022-09-05T18:09:59.000Z,25.52
2022-09-05T18:13:31.104Z,25.48
2022-09-05T18:16:03.390Z,25.47
2022-09-05T18:19:32.179Z,25.17
2022-09-05T18:21:25.109Z,25.25
2022-09-05T18:24:01.368Z,25.16
2022-09-05T18:26:29.514Z,25.12
2022-09-05T18:29:03.953Z,24.90
2022-09-05T18:31:59.460Z,24.85
2022-09-05T18:34:46.996Z,24.63
2022-09-05T18:37:59.274Z,24.57
2022-09-05T18:40:46.319Z,24.59
2022-09-05T18:43:20.182Z,24.42
2022-09-05T18:45:52.908Z,24.35
2022-09-05T18:48:29.944Z,24.34
2022-09-05T18:51:13.372Z,24.34
2022-09-05T18:53:47.518Z,24.38
2022-09-05T18:56:27.336Z,24.36
2022-09-05T18:59:10.732Z,24.49
2022-09-05T19:01:41.779Z,24.41
2022-09-05T19:04:16.052Z,24.28
2022-09-05T19:07:07.998Z,24.25
2022-09-05T19:09:37.439Z,24.19
2022-09-05T19:12:31.607Z,24.14
2022-09-05T19:14:57.829Z,24.16
2022-09-05T19:17:31.354Z,24.07
2022-09-05T19:20:32.027Z,23.76
2022-09-05T19:23:10.689Z,23.79
2022-09-05T19:25:42.138Z,23.75
2022-09-05T19:36:46.202Z,23.72
2022-09-05T19:36:46.356Z,23.49
2022-09-05T19:37:13.757Z,23.59
2022-09-05T19:37:22.585Z,23.51
2022-09-05T19:43:33.106Z,23.49
2022-09-05T19:47:37.378Z,23.47
2022-09-05T19:47:40.055Z,23.44
2022-09-05T19:48:17.517Z,23.29
2022-09-05T19:50:47.109Z,23.23
2022-09-05T19:53:17.593Z,23.27
2022-09-05T19:55:45.989Z,23.09
2022-09-05T19:58:29.186Z,23.09
2022-09-05T20:01:07.998Z,23.15
2022-09-05T20:03:41.066Z,23.08
2022-09-05T20:06:29.266Z,22.98
2022-09-05T20:09:09.649Z,23.07
2022-09-05T20:11:45.956Z,22.94
2022-09-05T20:14:19.893Z,22.94
2022-09-05T20:16:49.961Z,22.74
2022-09-05T20:19:28.433Z,22.67
2022-09-05T20:21:58.219Z,22.79
2022-09-05T20:24:27.714Z,22.72
2022-09-05T20:26:55.810Z,22.72
2022-09-05T20:29:43.526Z,22.62
2022-09-05T20:32:27.792Z,22.63
2022-09-05T20:37:58.631Z,22.47
2022-09-05T20:43:23.998Z,22.43
2022-09-05T20:43:32.446Z,22.41
2022-09-05T20:43:54.325Z,22.29
2022-09-05T20:48:23.961Z,22.28
2022-09-05T20:54:07.503Z,22.22
2022-09-05T20:54:20.957Z,22.18
2022-09-05T20:55:39.176Z,22.13
2022-09-05T20:57:48.419Z,22.18
2022-09-05T21:00:17.970Z,22.03
2022-09-05T21:02:55.771Z,21.96
2022-09-05T21:05:31.071Z,21.88
2022-09-05T21:08:16.605Z,21.92
2022-09-05T21:10:55.882Z,21.91
2022-09-05T21:13:26.626Z,21.63
2022-09-05T21:15:55.159Z,21.34
2022-09-05T21:18:26.111Z,21.36
2022-09-05T21:21:28.681Z,21.33
2022-09-05T21:24:06.302Z,21.35
2022-09-05T21:26:44.767Z,21.21
2022-09-05T21:29:16.356Z,21.31
2022-09-05T21:31:45.458Z,21.25
2022-09-05T21:34:17.035Z,21.30
2022-09-05T21:36:48.578Z,21.38
2022-09-05T21:39:25.107Z,21.38
2022-09-05T21:42:03.491Z,21.48
2022-09-05T21:47:34.315Z,21.51
2022-09-05T21:47:43.759Z,21.49
2022-09-05T21:50:30.694Z,21.41
2022-09-05T21:53:34.544Z,21.21
2022-09-05T21:59:17.641Z,21.11
2022-09-05T21:59:18.404Z,21.17
2022-09-05T22:01:51.162Z,21.11
2022-09-05T22:04:13.349Z,21.00
2022-09-05T22:06:40.960Z,20.80
2022-09-05T22:09:13.541Z,20.65
2022-09-05T22:11:41.914Z,20.68
2022-09-05T22:14:09.509Z,20.64
2022-09-05T22:16:44.762Z,20.79
2022-09-05T22:19:22.689Z,20.90
2022-09-05T22:21:52.024Z,21.03
2022-09-05T22:24:21.360Z,21.06
2022-09-05T22:27:11.407Z,21.10
2022-09-05T22:29:40.815Z,21.04
2022-09-05T22:32:08.705Z,21.10
2022-09-05T22:34:36.276Z,21.02
2022-09-05T22:37:03.906Z,20.92
2022-09-05T22:39:36.625Z,20.89
2022-09-05T22:42:07.629Z,20.92
2022-09-05T22:44:38.952Z,20.94
2022-09-05T22:47:07.025Z,20.99
2022-09-05T22:49:36.193Z,21.05
2022-09-05T22:52:04.990Z,21.18
2022-09-05T22:54:34.055Z,21.20
2022-09-05T22:57:02.321Z,21.22
2022-09-05T22:59:30.073Z,21.28
2022-09-05T23:01:57.907Z,21.29
2022-09-05T23:04:25.881Z,21.27
2022-09-05T23:06:53.817Z,21.30
2022-09-05T23:09:21.589Z,21.34
2022-09-05T23:11:50.613Z,21.34
2022-09-05T23:14:18.250Z,21.34
2022-09-05T23:16:45.908Z,21.27
2022-09-05T23:19:13.572Z,21.23
2022-09-05T23:21:41.225Z,21.27
2022-09-05T23:24:08.948Z,21.19
2022-09-05T23:26:36.638Z,21.28
2022-09-05T23:29:05.753Z,21.29
2022-09-05T23:31:33.472Z,21.29
2022-09-05T23:34:01.235Z,21.36
2022-09-05T23:36:29.009Z,21.44
2022-09-05T23:38:56.741Z,21.45
2022-09-05T23:41:24.547Z,21.50
2022-09-05T23:43:52.239Z,21.39
2022-09-05T23:46:21.280Z,21.45
2022-09-05T23:48:49.050Z,21.56
2022-09-05T23:51:16.740Z,21.57
2022-09-05T23:53:45.958Z,21.67
2022-09-05T23:56:13.684Z,21.63
2022-09-05T23:58:41.384Z,21.69
